Casper, WY

7:47 AM MDT on October 23, 2014 (GMT -0600)
Casper Mountain Foothills | Change Station
CLOSE
Current Station
Personal Weather Station
Location: Casper, WY
Elevation: 5334 ft
Nearby Weather Stations

Elev 5334 ft 42.83 °N, 106.31 °W | Updated 25 seconds ago

Clear
Clear
52.9 °F
Feels Like 52.9 °F
N
5.0
Wind Variable Wind from WSW
Gusts 15.0 mph

Today
High -- | Low -- °F
--% Chance of Precip.
Yesterday
High -- | Low -- °F
Precip. -- in
7:28 AM 6:10 PM
Waning Crescent, 0% visible
Pressure 30.05 in
Visibility 10.0 miles
Clouds Clear
Dew Point 17 °F
Humidity 24%
Rainfall 0.00 in
Snow Depth 0 in
UV 0 out of 12
Pollen 2.80 out of 12
Air Quality Not available.
Flu Activity Sporadic
METAR KCPR 231253Z 22009KT 10SM CLR 07/M07 A3009 RMK AO2 SLP175 T00721067

More Conditions Fewer Conditions

Pressure 30.05 in
Visibility 10.0 miles
Clouds Clear
Dew Point 17 °F
Humidity 24%
Rainfall 0.00 in
Snow Depth 0 in
UV 0 out of 12
Pollen 2.80 out of 12
Air Quality Not available.
Flu Activity Sporadic
METAR KCPR 231253Z 22009KT 10SM CLR 07/M07 A3009 RMK AO2 SLP175 T00721067

More Conditions Fewer Conditions

10-Day Weather Forecast

Almanac

Astronomy

Oct. 23, 2014 Rise Set
Actual Time 7:28 AM MDT 6:10 PM MDT
Civil Twilight 6:59 AM MDT 6:39 PM MDT
Nautical Twilight 6:26 AM MDT 7:12 PM MDT
Astronomical Twilight 5:53 AM MDT 7:44 PM MDT
Moon 7:10 AM MDT 6:13 PM MDT
Length of Visible Light 11h 39m
Length of Day
10h 41m
Tomorrow will be 2m 43s shorter.
Waning Crescent, 0% of the Moon is Illuminated
Today
Waning Crescent
Oct 23
New
Oct 30
First Quarter
Nov 6
Full
Nov 14
Last Quarter

Today's Extremes

State Highs State Lows

Community

WunderPhotos

Upload Photos

1,764,238 photos uploaded!

Nearby

Snow Depth

Station Depth Elevation
Casper Mountain 0 in 7850 ft
Reno Hill 1 in 8500 ft
Laprele Creek 0 in 8375 ft
Windy Peak 1 in 7900 ft
Sand Lake 5 in 10050 ft

Earthquake Activity

City Distance Mag. Time & Date
No recent earthquake activity has been reported nearby.
Minimum magnitude displayed is 2.5.

Coastal Water Temperatures

Place Temperature
No Stations Reporting

Nearby Weather Stations